createdAt,value
2018-05-25T00:01:43.505Z,99.90
2018-05-25T00:03:45.936Z,99.90
2018-05-25T00:05:49.160Z,99.90
2018-05-25T00:07:51.636Z,99.90
2018-05-25T00:09:54.072Z,99.90
2018-05-25T00:11:57.288Z,99.90
2018-05-25T00:14:00.496Z,99.90
2018-05-25T00:16:02.933Z,99.90
2018-05-25T00:18:05.369Z,99.90
2018-05-25T00:20:07.817Z,99.90
2018-05-25T00:22:10.249Z,99.90
2018-05-25T00:24:12.724Z,99.90
2018-05-25T00:26:15.173Z,99.90
2018-05-25T00:28:20.669Z,99.90
2018-05-25T00:30:23.208Z,99.90
2018-05-25T00:32:25.640Z,99.90
2018-05-25T00:34:28.836Z,99.90
2018-05-25T00:36:31.336Z,99.90
2018-05-25T00:38:33.800Z,99.90
2018-05-25T00:40:36.236Z,99.90
2018-05-25T00:42:39.431Z,99.90
2018-05-25T00:44:42.655Z,99.90
2018-05-25T00:46:45.120Z,99.90
2018-05-25T00:48:47.552Z,99.90
2018-05-25T00:50:50.781Z,99.90
2018-05-25T00:52:53.228Z,99.90
2018-05-25T00:55:07.700Z,99.90
2018-05-25T00:57:10.160Z,99.90
2018-05-25T00:59:12.605Z,99.90
2018-05-25T01:01:17.216Z,99.90
2018-05-25T01:03:20.505Z,99.90
2018-05-25T01:05:22.897Z,99.90
2018-05-25T01:07:25.345Z,99.90
2018-05-25T01:09:28.553Z,99.90
2018-05-25T01:11:30.985Z,99.90
2018-05-25T01:13:33.516Z,99.90
2018-05-25T01:15:35.990Z,99.90
2018-05-25T01:17:38.461Z,99.90
2018-05-25T01:19:40.885Z,99.90
2018-05-25T01:21:44.105Z,99.90
2018-05-25T01:23:46.540Z,99.90
2018-05-25T01:25:49.761Z,99.90
2018-05-25T01:27:52.184Z,99.90
2018-05-25T01:29:54.620Z,99.90
2018-05-25T01:31:57.085Z,99.90
2018-05-25T01:33:59.553Z,99.90
2018-05-25T01:36:02.025Z,99.90
2018-05-25T01:38:04.493Z,99.90
2018-05-25T01:40:07.583Z,99.90
2018-05-25T01:42:10.055Z,99.90
2018-05-25T01:44:12.556Z,99.90
2018-05-25T01:46:14.962Z,99.90
2018-05-25T01:48:17.456Z,99.90
2018-05-25T01:50:19.886Z,99.90
2018-05-25T01:52:23.109Z,99.90
2018-05-25T01:54:25.545Z,99.90
2018-05-25T01:56:28.757Z,99.90
2018-05-25T01:58:31.195Z,99.90
2018-05-25T02:00:34.427Z,99.90
2018-05-25T02:02:36.864Z,99.90
2018-05-25T02:04:40.087Z,99.90
2018-05-25T02:06:42.561Z,99.90
2018-05-25T02:08:45.020Z,99.90
2018-05-25T02:10:47.452Z,99.90
2018-05-25T02:12:50.681Z,99.90
2018-05-25T02:14:53.116Z,99.90
2018-05-25T02:16:56.336Z,99.90
2018-05-25T02:18:58.796Z,99.90
2018-05-25T02:21:01.227Z,99.90
2018-05-25T02:23:03.690Z,99.90
2018-05-25T02:25:06.115Z,99.90
2018-05-25T02:27:08.593Z,99.90
2018-05-25T02:29:11.029Z,99.90
2018-05-25T02:31:13.472Z,99.90
2018-05-25T02:33:15.994Z,99.90
2018-05-25T02:35:18.908Z,99.90
2018-05-25T02:37:22.456Z,99.90
2018-05-25T02:39:24.903Z,99.90
2018-05-25T02:41:28.100Z,99.90
2018-05-25T02:43:31.304Z,99.90
2018-05-25T02:45:33.732Z,99.90
2018-05-25T02:47:36.255Z,99.90
2018-05-25T02:49:38.732Z,99.90
2018-05-25T02:51:41.192Z,99.90
2018-05-25T02:53:43.633Z,99.90
2018-05-25T02:55:46.838Z,99.90
2018-05-25T02:57:49.325Z,99.90
2018-05-25T02:59:51.757Z,99.90
2018-05-25T03:01:54.980Z,99.90
2018-05-25T03:03:57.406Z,99.90
2018-05-25T03:06:00.620Z,99.90
2018-05-25T03:08:03.115Z,99.90
2018-05-25T03:10:05.553Z,99.90
2018-05-25T03:12:08.085Z,99.90
2018-05-25T03:14:10.524Z,99.90
2018-05-25T03:16:12.993Z,99.90
2018-05-25T03:18:15.437Z,99.90
2018-05-25T03:20:17.933Z,99.90
2018-05-25T03:22:20.378Z,99.90
2018-05-25T03:24:22.805Z,99.90
2018-05-25T03:26:26.160Z,99.90
2018-05-25T03:28:28.617Z,99.90
2018-05-25T03:30:31.099Z,99.90
2018-05-25T03:32:33.575Z,99.90
2018-05-25T03:34:36.006Z,99.90
2018-05-25T03:36:39.205Z,99.90
2018-05-25T03:38:41.701Z,99.90
2018-05-25T03:40:44.168Z,99.90
2018-05-25T03:42:46.632Z,99.90
2018-05-25T03:44:49.113Z,99.90
2018-05-25T03:46:51.587Z,99.90
2018-05-25T03:48:54.053Z,99.90
2018-05-25T03:50:56.545Z,99.90
2018-05-25T03:52:59.096Z,99.90
2018-05-25T03:55:01.521Z,99.90
2018-05-25T03:57:04.756Z,99.90
2018-05-25T03:59:19.183Z,99.90
2018-05-25T04:01:33.663Z,99.90
2018-05-25T04:03:36.089Z,99.90
2018-05-25T04:05:39.308Z,99.90
2018-05-25T04:07:41.781Z,99.90
2018-05-25T04:09:44.208Z,99.90
2018-05-25T04:11:47.459Z,99.90
2018-05-25T04:13:50.713Z,99.90
2018-05-25T04:15:53.141Z,99.90
2018-05-25T04:17:56.333Z,99.90
2018-05-25T04:19:58.764Z,99.90
2018-05-25T04:22:01.225Z,99.90
2018-05-25T04:24:04.468Z,99.90
2018-05-25T04:26:07.668Z,99.90
2018-05-25T04:28:10.888Z,99.90
2018-05-25T04:30:13.397Z,99.90
2018-05-25T04:32:16.602Z,99.90
2018-05-25T04:34:19.804Z,99.90
2018-05-25T04:36:22.247Z,99.90
2018-05-25T04:38:24.784Z,99.90
2018-05-25T04:40:27.225Z,99.90
2018-05-25T04:42:29.660Z,99.90
2018-05-25T04:44:32.108Z,99.90
2018-05-25T04:46:34.552Z,99.90
2018-05-25T04:48:37.025Z,99.90
2018-05-25T04:50:39.468Z,99.90
2018-05-25T04:52:42.672Z,99.90
2018-05-25T04:54:45.221Z,99.90
2018-05-25T04:56:47.659Z,99.90
2018-05-25T04:58:50.930Z,99.90
2018-05-25T05:00:53.384Z,99.90
2018-05-25T05:02:55.825Z,99.90
2018-05-25T05:04:58.348Z,99.90
2018-05-25T05:07:00.748Z,99.90
2018-05-25T05:09:03.958Z,99.90
2018-05-25T05:11:06.445Z,99.90
2018-05-25T05:13:08.928Z,99.90
2018-05-25T05:15:11.385Z,99.90
2018-05-25T05:17:13.864Z,99.90
2018-05-25T05:19:20.854Z,99.90
2018-05-25T05:21:23.400Z,99.90
2018-05-25T05:23:25.857Z,99.90
2018-05-25T05:25:28.284Z,99.90
2018-05-25T05:27:30.817Z,99.90
2018-05-25T05:29:33.285Z,99.90
2018-05-25T05:31:35.973Z,99.90
2018-05-25T05:33:38.458Z,99.90
2018-05-25T05:35:40.900Z,99.90
2018-05-25T05:37:43.377Z,99.90
2018-05-25T05:39:45.824Z,99.90
2018-05-25T05:41:48.313Z,99.90
2018-05-25T05:43:50.757Z,99.90
2018-05-25T05:45:53.189Z,99.90
2018-05-25T05:47:55.645Z,99.90
2018-05-25T05:49:58.093Z,99.90
2018-05-25T05:52:00.543Z,99.90
2018-05-25T05:54:03.032Z,99.90
2018-05-25T05:56:05.460Z,99.90
2018-05-25T05:58:08.709Z,99.90
2018-05-25T06:00:11.164Z,99.90
2018-05-25T06:02:13.614Z,99.90
2018-05-25T06:04:16.824Z,99.90
2018-05-25T06:06:19.287Z,99.90
2018-05-25T06:08:21.752Z,99.90
2018-05-25T06:10:24.188Z,99.90
2018-05-25T06:12:27.396Z,99.90
2018-05-25T06:14:30.604Z,99.90
2018-05-25T06:16:33.058Z,99.90
2018-05-25T06:18:35.494Z,99.90
2018-05-25T06:20:38.016Z,99.90
2018-05-25T06:22:40.444Z,99.90
2018-05-25T06:24:43.656Z,99.90
2018-05-25T06:26:46.146Z,99.90
2018-05-25T06:28:48.592Z,99.90
2018-05-25T06:30:51.080Z,99.90
2018-05-25T06:32:53.522Z,99.90
2018-05-25T06:34:56.732Z,99.90
2018-05-25T06:36:59.172Z,99.90
2018-05-25T06:39:02.397Z,99.90
2018-05-25T06:41:04.870Z,99.90
2018-05-25T06:43:07.868Z,99.90
2018-05-25T06:45:10.341Z,99.90
2018-05-25T06:47:12.768Z,99.90
2018-05-25T06:49:15.212Z,99.90
2018-05-25T06:51:18.411Z,99.90
2018-05-25T06:53:21.628Z,99.90
2018-05-25T06:55:24.097Z,99.90
2018-05-25T06:57:26.568Z,99.90
2018-05-25T06:59:29.022Z,99.90
2018-05-25T07:01:31.527Z,99.90
2018-05-25T07:03:33.981Z,99.90
2018-05-25T07:05:36.464Z,99.90
2018-05-25T07:07:38.911Z,99.90
2018-05-25T07:09:41.397Z,99.90
2018-05-25T07:11:43.837Z,99.80
2018-05-25T07:13:47.048Z,97.90
2018-05-25T07:15:49.489Z,97.80
2018-05-25T07:17:52.691Z,98.30
2018-05-25T07:19:55.127Z,98.20
2018-05-25T07:21:58.331Z,95.20
2018-05-25T07:24:01.552Z,95.80
2018-05-25T07:26:04.025Z,95.80
2018-05-25T07:28:06.455Z,93.50
2018-05-25T07:30:09.708Z,93.40
2018-05-25T07:32:12.148Z,93.30
2018-05-25T07:34:14.617Z,92.50
2018-05-25T07:36:17.053Z,91.70
2018-05-25T07:38:20.284Z,93.50
2018-05-25T07:40:22.753Z,93.50
2018-05-25T07:42:25.222Z,93.70
2018-05-25T07:44:27.689Z,93.10
2018-05-25T07:46:30.129Z,93.50
2018-05-25T07:48:33.372Z,93.40
2018-05-25T07:50:35.821Z,93.40
2018-05-25T07:52:38.303Z,94.00
2018-05-25T07:54:40.788Z,94.00
2018-05-25T07:56:43.169Z,93.90
2018-05-25T07:58:45.600Z,94.50
2018-05-25T08:00:48.065Z,94.40
2018-05-25T08:02:50.497Z,94.20
2018-05-25T08:04:53.720Z,93.70
2018-05-25T08:06:56.144Z,93.60
2018-05-25T08:09:00.308Z,94.40
2018-05-25T08:11:02.758Z,94.30
2018-05-25T08:13:05.180Z,94.40
2018-05-25T08:15:07.729Z,95.90
2018-05-25T08:17:10.177Z,96.40
2018-05-25T08:19:12.600Z,95.40
2018-05-25T08:21:15.054Z,95.20
2018-05-25T08:23:17.475Z,94.30
2018-05-25T08:25:19.912Z,93.80
2018-05-25T08:27:23.108Z,94.20
2018-05-25T08:29:26.323Z,92.60
2018-05-25T08:31:28.756Z,92.60
2018-05-25T08:33:31.948Z,92.20
2018-05-25T08:35:35.186Z,92.70
2018-05-25T08:37:37.660Z,93.00
2018-05-25T08:39:40.130Z,92.70
2018-05-25T08:41:42.564Z,92.60
2018-05-25T08:43:44.993Z,92.60
2018-05-25T08:45:47.444Z,92.40
2018-05-25T08:47:49.904Z,92.70
2018-05-25T08:49:52.380Z,92.50
2018-05-25T08:51:54.825Z,92.10
2018-05-25T08:53:57.261Z,92.10
2018-05-25T08:56:00.457Z,93.00
2018-05-25T08:58:03.658Z,92.90
2018-05-25T09:00:06.857Z,93.10
2018-05-25T09:02:09.344Z,93.10
2018-05-25T09:04:11.812Z,92.10
2018-05-25T09:06:14.267Z,92.00
2018-05-25T09:08:16.700Z,91.40
2018-05-25T09:10:19.944Z,91.90
2018-05-25T09:12:22.396Z,91.50
2018-05-25T09:14:24.832Z,91.90
2018-05-25T09:16:28.062Z,92.40
2018-05-25T09:18:30.485Z,92.00
2018-05-25T09:20:33.708Z,90.60
2018-05-25T09:22:36.896Z,89.00
2018-05-25T09:24:39.328Z,88.90
2018-05-25T09:26:43.272Z,87.10
2018-05-25T09:28:46.357Z,87.00
2018-05-25T09:30:48.876Z,85.60
2018-05-25T09:32:51.283Z,87.50
2018-05-25T09:34:53.716Z,87.70
2018-05-25T09:36:57.670Z,83.50
2018-05-25T09:39:00.886Z,83.30
2018-05-25T09:41:03.336Z,85.00
2018-05-25T09:43:05.811Z,84.20
2018-05-25T09:45:08.263Z,83.90
2018-05-25T09:47:10.755Z,84.50
2018-05-25T09:49:13.199Z,83.40
2018-05-25T09:51:15.692Z,84.20
2018-05-25T09:53:18.156Z,83.40
2018-05-25T09:55:20.588Z,82.00
2018-05-25T09:57:23.824Z,81.30
2018-05-25T09:59:26.292Z,81.30
2018-05-25T10:01:28.760Z,79.90
2018-05-25T10:03:31.208Z,79.70
2018-05-25T10:05:33.705Z,79.30
2018-05-25T10:07:36.149Z,78.30
2018-05-25T10:09:38.582Z,78.20
2018-05-25T10:11:41.864Z,76.90
2018-05-25T10:13:44.264Z,76.90
2018-05-25T10:15:47.489Z,74.30
2018-05-25T10:17:49.974Z,73.90
2018-05-25T10:19:52.408Z,77.00
2018-05-25T10:21:54.896Z,73.80
2018-05-25T10:23:57.375Z,71.80
2018-05-25T10:25:59.813Z,71.60
2018-05-25T10:28:02.246Z,70.10
2018-05-25T10:30:05.510Z,71.00
2018-05-25T10:32:07.945Z,70.90
2018-05-25T10:34:10.432Z,69.10
2018-05-25T10:36:12.864Z,69.40
2018-05-25T10:38:16.092Z,67.90
2018-05-25T10:40:18.626Z,67.90
2018-05-25T10:42:21.856Z,67.50
2018-05-25T10:44:24.330Z,67.40
2018-05-25T10:46:26.788Z,68.80
2018-05-25T10:48:29.261Z,69.50
2018-05-25T10:50:31.740Z,68.30
2018-05-25T10:52:34.164Z,67.70
2018-05-25T10:54:37.361Z,66.30
2018-05-25T10:56:39.805Z,66.30
2018-05-25T10:58:42.329Z,66.20
2018-05-25T11:00:44.752Z,66.10
2018-05-25T11:02:47.956Z,66.70
2018-05-25T11:04:50.396Z,66.70
2018-05-25T11:06:54.362Z,66.80
2018-05-25T11:08:56.789Z,66.80
2018-05-25T11:11:00.020Z,65.60
2018-05-25T11:13:02.444Z,65.60
2018-05-25T11:15:05.676Z,64.20
2018-05-25T11:17:08.113Z,64.10
2018-05-25T11:19:11.336Z,65.00
2018-05-25T11:21:13.804Z,64.80
2018-05-25T11:23:16.236Z,64.40
2018-05-25T11:25:19.433Z,60.40
2018-05-25T11:27:21.923Z,60.50
2018-05-25T11:29:24.353Z,61.20
2018-05-25T11:31:28.513Z,62.70
2018-05-25T11:33:30.952Z,62.30
2018-05-25T11:35:33.473Z,63.00
2018-05-25T11:37:35.897Z,62.00
2018-05-25T11:39:38.392Z,61.20
2018-05-25T11:41:40.866Z,61.00
2018-05-25T11:43:43.332Z,59.30
2018-05-25T11:45:45.852Z,58.80
2018-05-25T11:47:49.057Z,58.90
2018-05-25T11:49:52.253Z,56.90
2018-05-25T11:51:54.740Z,56.90
2018-05-25T11:53:57.221Z,56.30
2018-05-25T11:55:59.648Z,55.70
2018-05-25T11:58:02.860Z,58.10
2018-05-25T12:00:05.280Z,58.00
2018-05-25T12:02:08.536Z,54.40
2018-05-25T12:04:11.000Z,54.40
2018-05-25T12:06:13.473Z,54.90
2018-05-25T12:08:15.952Z,54.20
2018-05-25T12:10:18.373Z,54.30
2018-05-25T12:12:21.583Z,52.60
2018-05-25T12:14:24.069Z,52.50
2018-05-25T12:16:26.512Z,53.30
2018-05-25T12:18:29.729Z,56.30
2018-05-25T12:20:32.149Z,56.30
2018-05-25T12:22:34.584Z,56.80
2018-05-25T12:24:37.048Z,55.70
2018-05-25T12:26:39.472Z,55.10
2018-05-25T12:28:42.709Z,56.40
2018-05-25T12:30:45.151Z,56.30
2018-05-25T12:32:47.632Z,57.50
2018-05-25T12:34:50.109Z,58.00
2018-05-25T12:36:52.538Z,59.00
2018-05-25T12:38:55.742Z,58.70
2018-05-25T12:40:58.231Z,58.70
2018-05-25T12:43:00.669Z,58.60
2018-05-25T12:45:12.716Z,60.30
2018-05-25T12:47:15.257Z,59.50
2018-05-25T12:49:17.757Z,58.20
2018-05-25T12:51:20.188Z,57.40
2018-05-25T12:53:22.617Z,55.60
2018-05-25T12:55:25.151Z,55.80
2018-05-25T12:57:28.248Z,56.90
2018-05-25T12:59:30.668Z,56.00
2018-05-25T13:01:33.873Z,53.80
2018-05-25T13:03:36.356Z,53.80
2018-05-25T13:05:38.784Z,53.30
2018-05-25T13:07:42.017Z,54.60
2018-05-25T13:09:44.444Z,54.60
2018-05-25T13:11:47.631Z,53.20
2018-05-25T13:13:50.873Z,53.20
2018-05-25T13:15:53.331Z,53.10
2018-05-25T13:17:55.756Z,53.30
2018-05-25T13:19:58.992Z,52.20
2018-05-25T13:22:01.416Z,52.10
2018-05-25T13:24:04.621Z,53.60
2018-05-25T13:26:07.069Z,53.60
2018-05-25T13:28:10.314Z,54.10
2018-05-25T13:30:12.740Z,54.10
2018-05-25T13:32:15.980Z,54.20
2018-05-25T13:34:18.437Z,54.20
2018-05-25T13:36:20.865Z,54.30
2018-05-25T13:38:24.092Z,54.60
2018-05-25T13:40:26.545Z,54.50
2018-05-25T13:42:28.991Z,54.90
2018-05-25T13:44:31.439Z,54.40
2018-05-25T13:46:33.860Z,55.20
2018-05-25T13:48:36.297Z,55.20
2018-05-25T13:50:39.488Z,55.10
2018-05-25T13:52:42.705Z,54.50
2018-05-25T13:54:45.210Z,54.40
2018-05-25T13:56:47.682Z,55.40
2018-05-25T13:58:50.136Z,54.60
2018-05-25T14:00:52.598Z,55.70
2018-05-25T14:02:55.068Z,55.70
2018-05-25T14:04:57.549Z,55.70
2018-05-25T14:07:00.072Z,54.40
2018-05-25T14:09:03.369Z,53.50
2018-05-25T14:11:06.596Z,53.40
2018-05-25T14:13:09.055Z,53.40
2018-05-25T14:15:11.557Z,54.30
2018-05-25T14:17:15.042Z,54.50
2018-05-25T14:19:17.504Z,54.50
2018-05-25T14:21:19.968Z,55.60
2018-05-25T14:23:22.384Z,58.60
2018-05-25T14:25:25.587Z,59.90
2018-05-25T14:27:28.096Z,59.90
2018-05-25T14:29:30.540Z,60.20
2018-05-25T14:31:33.055Z,62.70
2018-05-25T14:33:35.491Z,65.00
2018-05-25T14:35:37.960Z,65.60
2018-05-25T14:37:40.468Z,64.60
2018-05-25T14:39:42.910Z,64.50
2018-05-25T14:41:45.332Z,63.60
2018-05-25T14:43:48.565Z,60.00
2018-05-25T14:45:51.013Z,59.90
2018-05-25T14:47:53.457Z,60.30
2018-05-25T14:49:56.656Z,59.30
2018-05-25T14:51:59.125Z,59.20
2018-05-25T14:54:02.448Z,59.90
2018-05-25T14:56:04.833Z,59.90
2018-05-25T14:58:07.280Z,58.80
2018-05-25T15:00:09.828Z,58.40
2018-05-25T15:02:13.089Z,58.10
2018-05-25T15:04:15.512Z,58.00
2018-05-25T15:06:18.069Z,57.10
2018-05-25T15:08:20.648Z,57.10
2018-05-25T15:10:23.092Z,55.20
2018-05-25T15:12:27.029Z,56.30
2018-05-25T15:14:29.495Z,56.20
2018-05-25T15:16:33.065Z,55.30
2018-05-25T15:18:36.302Z,55.60
2018-05-25T15:20:38.793Z,55.60
2018-05-25T15:22:41.223Z,55.10
2018-05-25T15:24:43.716Z,55.80
2018-05-25T15:26:46.185Z,56.00
2018-05-25T15:28:48.685Z,57.20
2018-05-25T15:30:51.429Z,57.80
2018-05-25T15:32:53.561Z,58.10
2018-05-25T15:34:55.993Z,57.20
2018-05-25T15:36:58.429Z,57.10
2018-05-25T15:39:00.884Z,56.90
2018-05-25T15:41:03.316Z,57.30
2018-05-25T15:43:06.575Z,56.90
2018-05-25T15:45:09.020Z,56.90
2018-05-25T15:47:11.486Z,56.30
2018-05-25T15:49:13.937Z,56.90
2018-05-25T15:51:16.448Z,56.90
2018-05-25T15:53:18.877Z,57.50
2018-05-25T15:55:21.312Z,57.70
2018-05-25T15:57:24.545Z,57.10
2018-05-25T15:59:26.984Z,57.00
2018-05-25T16:01:30.216Z,58.10
2018-05-25T16:03:32.681Z,58.00
2018-05-25T16:05:35.117Z,57.70
2018-05-25T16:07:37.948Z,58.50
2018-05-25T16:09:40.376Z,58.70
2018-05-25T16:11:42.819Z,59.50
2018-05-25T16:13:46.008Z,58.70
2018-05-25T16:15:49.216Z,57.90
2018-05-25T16:17:52.408Z,56.80
2018-05-25T16:19:55.627Z,56.70
2018-05-25T16:21:58.028Z,55.90
2018-05-25T16:24:02.584Z,55.30
2018-05-25T16:26:05.795Z,54.40
2018-05-25T16:28:08.224Z,54.40
2018-05-25T16:30:11.461Z,55.40
2018-05-25T16:32:13.910Z,55.40
2018-05-25T16:34:16.357Z,54.80
2018-05-25T16:36:19.545Z,54.80
2018-05-25T16:38:22.040Z,54.70
2018-05-25T16:40:24.490Z,54.30
2018-05-25T16:42:27.029Z,54.70
2018-05-25T16:44:29.441Z,55.20
2018-05-25T16:46:31.946Z,54.60
2018-05-25T16:48:34.396Z,54.60
2018-05-25T16:50:36.837Z,54.40
2018-05-25T16:52:39.367Z,54.80
2018-05-25T16:54:41.792Z,53.40
2018-05-25T16:56:44.283Z,52.90
2018-05-25T16:58:46.726Z,53.00
2018-05-25T17:00:49.911Z,52.60
2018-05-25T17:02:52.432Z,52.60
2018-05-25T17:04:54.925Z,52.20
2018-05-25T17:06:58.120Z,52.60
2018-05-25T17:09:01.326Z,52.90
2018-05-25T17:11:03.830Z,52.90
2018-05-25T17:13:06.300Z,52.40
2018-05-25T17:15:08.720Z,53.40
2018-05-25T17:17:11.916Z,52.30
2018-05-25T17:19:15.149Z,52.50
2018-05-25T17:21:17.583Z,52.50
2018-05-25T17:23:20.092Z,52.70
2018-05-25T17:25:22.523Z,53.30
2018-05-25T17:27:24.953Z,54.20
2018-05-25T17:29:28.892Z,55.40
2018-05-25T17:31:31.332Z,55.40
2018-05-25T17:33:35.300Z,55.80
2018-05-25T17:35:37.760Z,55.80
2018-05-25T17:37:40.233Z,55.10
2018-05-25T17:39:42.716Z,54.00
2018-05-25T17:41:45.170Z,52.90
2018-05-25T17:43:47.656Z,51.70
2018-05-25T17:45:50.100Z,50.80
2018-05-25T17:47:52.568Z,50.30
2018-05-25T17:49:55.764Z,49.40
2018-05-25T17:51:58.232Z,49.40
2018-05-25T17:54:00.693Z,48.70
2018-05-25T17:56:03.168Z,47.50
2018-05-25T17:58:05.618Z,47.40
2018-05-25T18:00:08.829Z,48.90
2018-05-25T18:02:11.300Z,48.80
2018-05-25T18:04:13.785Z,48.40
2018-05-25T18:06:16.255Z,48.50
2018-05-25T18:08:18.673Z,48.50
2018-05-25T18:10:22.641Z,46.30
2018-05-25T18:12:24.990Z,46.30
2018-05-25T18:14:27.496Z,46.20
2018-05-25T18:16:30.103Z,45.50
2018-05-25T18:18:33.320Z,45.80
2018-05-25T18:20:35.776Z,45.80
2018-05-25T18:22:38.232Z,46.10
2018-05-25T18:24:42.080Z,48.00
2018-05-25T18:26:44.605Z,48.00
2018-05-25T18:28:47.809Z,47.10
2018-05-25T18:30:50.292Z,47.00
2018-05-25T18:32:52.759Z,47.70
2018-05-25T18:34:55.238Z,49.30
2018-05-25T18:36:57.700Z,51.10
2018-05-25T18:39:00.153Z,52.20
2018-05-25T18:41:02.669Z,53.10
2018-05-25T18:43:05.117Z,54.00
2018-05-25T18:45:07.605Z,55.50
2018-05-25T18:47:10.768Z,58.00
2018-05-25T18:49:13.200Z,58.00
2018-05-25T18:51:16.404Z,59.80
2018-05-25T18:53:18.847Z,59.80
2018-05-25T18:55:22.086Z,61.10
2018-05-25T18:57:24.525Z,61.50
2018-05-25T18:59:27.722Z,63.50
2018-05-25T19:01:30.216Z,63.50
2018-05-25T19:03:32.684Z,64.40
2018-05-25T19:05:35.104Z,65.30
2018-05-25T19:07:38.328Z,68.30
2018-05-25T19:09:40.752Z,68.30
2018-05-25T19:11:43.289Z,69.10
2018-05-25T19:13:45.749Z,70.00
2018-05-25T19:15:48.176Z,70.70
2018-05-25T19:17:51.405Z,72.40
2018-05-25T19:19:53.845Z,72.40
2018-05-25T19:21:57.043Z,75.30
2018-05-25T19:23:59.514Z,75.30
2018-05-25T19:26:01.960Z,76.40
2018-05-25T19:28:04.490Z,76.40
2018-05-25T19:30:06.951Z,78.10
2018-05-25T19:32:09.416Z,78.90
2018-05-25T19:34:11.906Z,79.50
2018-05-25T19:36:14.352Z,80.50
2018-05-25T19:38:16.805Z,80.70
2018-05-25T19:40:19.276Z,81.30
2018-05-25T19:42:21.729Z,82.80
2018-05-25T19:44:24.914Z,84.80
2018-05-25T19:46:28.216Z,85.50
2018-05-25T19:48:30.621Z,85.50
2018-05-25T19:50:33.076Z,86.30
2018-05-25T19:52:35.518Z,87.30
2018-05-25T19:54:38.728Z,89.70
2018-05-25T19:56:41.178Z,89.50
2018-05-25T19:58:44.395Z,90.70
2018-05-25T20:00:46.841Z,90.70
2018-05-25T20:02:49.345Z,91.10
2018-05-25T20:04:51.808Z,91.30
2018-05-25T20:06:54.272Z,91.60
2018-05-25T20:08:56.716Z,92.00
2018-05-25T20:10:59.233Z,92.20
2018-05-25T20:13:01.689Z,92.70
2018-05-25T20:15:04.121Z,93.20
2018-05-25T20:17:07.345Z,93.30
2018-05-25T20:19:09.787Z,93.30
2018-05-25T20:21:12.980Z,93.70
2018-05-25T20:23:15.518Z,93.70
2018-05-25T20:25:17.941Z,94.10
2018-05-25T20:27:20.464Z,94.10
2018-05-25T20:29:22.909Z,94.20
2018-05-25T20:31:25.481Z,94.90
2018-05-25T20:33:27.912Z,95.40
2018-05-25T20:35:30.392Z,95.20
2018-05-25T20:37:32.869Z,95.40
2018-05-25T20:39:35.314Z,95.50
2018-05-25T20:41:37.754Z,96.30
2018-05-25T20:43:40.190Z,96.80
2018-05-25T20:45:42.648Z,97.00
2018-05-25T20:47:45.137Z,97.20
2018-05-25T20:49:47.552Z,96.90
2018-05-25T20:51:50.911Z,97.30
2018-05-25T20:53:53.452Z,97.40
2018-05-25T20:55:55.903Z,97.10
2018-05-25T20:57:58.349Z,97.50
2018-05-25T21:00:01.632Z,98.00
2018-05-25T21:02:04.843Z,97.90
2018-05-25T21:04:07.283Z,97.90
2018-05-25T21:06:09.709Z,98.40
2018-05-25T21:08:12.176Z,98.70
2018-05-25T21:10:14.616Z,98.30
2018-05-25T21:12:17.169Z,98.60
2018-05-25T21:14:19.597Z,98.80
2018-05-25T21:16:22.133Z,99.40
2018-05-25T21:18:24.605Z,99.90
2018-05-25T21:20:27.034Z,99.60
2018-05-25T21:22:29.514Z,99.60
2018-05-25T21:24:32.737Z,99.90
2018-05-25T21:26:35.239Z,99.80
2018-05-25T21:28:39.536Z,99.90
2018-05-25T21:30:41.989Z,99.90
2018-05-25T21:32:44.435Z,99.90
2018-05-25T21:34:47.639Z,99.90
2018-05-25T21:36:50.068Z,99.90
2018-05-25T21:38:52.545Z,99.90
2018-05-25T21:40:55.900Z,99.90
2018-05-25T21:42:58.364Z,99.90
2018-05-25T21:45:00.811Z,99.90
2018-05-25T21:47:03.240Z,99.90
2018-05-25T21:49:05.781Z,99.90
2018-05-25T21:51:08.224Z,99.90
2018-05-25T21:53:10.685Z,99.90
2018-05-25T21:55:15.739Z,99.90
2018-05-25T21:57:18.172Z,99.90
2018-05-25T21:59:21.381Z,99.90
2018-05-25T22:01:23.876Z,99.90
2018-05-25T22:03:26.334Z,99.90
2018-05-25T22:05:28.805Z,99.90
2018-05-25T22:07:31.277Z,99.90
2018-05-25T22:09:33.777Z,99.90
2018-05-25T22:11:36.224Z,99.90
2018-05-25T22:13:38.699Z,99.90
2018-05-25T22:15:41.138Z,99.90
2018-05-25T22:17:43.628Z,99.90
2018-05-25T22:19:46.057Z,99.90
2018-05-25T22:21:49.297Z,99.90
2018-05-25T22:23:51.754Z,99.90
2018-05-25T22:25:54.209Z,99.90
2018-05-25T22:27:56.694Z,99.90
2018-05-25T22:29:59.122Z,99.90
2018-05-25T22:32:02.327Z,99.90
2018-05-25T22:34:04.850Z,99.90
2018-05-25T22:36:07.309Z,99.90
2018-05-25T22:38:09.761Z,99.90
2018-05-25T22:40:12.229Z,99.90
2018-05-25T22:42:26.609Z,99.90
2018-05-25T22:44:41.076Z,99.90
2018-05-25T22:46:55.584Z,99.90
2018-05-25T22:49:10.023Z,99.90
2018-05-25T22:51:24.197Z,99.90
2018-05-25T22:53:31.876Z,99.90
2018-05-25T22:55:34.353Z,99.90
2018-05-25T22:57:36.797Z,99.90
2018-05-25T22:59:39.304Z,99.90
2018-05-25T23:01:41.749Z,99.90
2018-05-25T23:03:44.246Z,99.90
2018-05-25T23:05:46.800Z,99.90
2018-05-25T23:07:49.248Z,99.90
2018-05-25T23:09:51.824Z,99.90
2018-05-25T23:11:56.164Z,99.90
2018-05-25T23:13:58.632Z,99.90
2018-05-25T23:16:01.048Z,99.90
2018-05-25T23:18:05.089Z,99.90
2018-05-25T23:20:07.600Z,99.90
2018-05-25T23:22:10.044Z,99.90
2018-05-25T23:24:12.541Z,99.90
2018-05-25T23:26:14.948Z,99.90
2018-05-25T23:28:18.232Z,99.90
2018-05-25T23:30:21.424Z,99.90
2018-05-25T23:32:23.941Z,99.90
2018-05-25T23:34:26.457Z,99.90
2018-05-25T23:36:28.981Z,99.90
2018-05-25T23:38:31.444Z,99.90
2018-05-25T23:40:33.891Z,99.90
2018-05-25T23:42:36.402Z,99.90
2018-05-25T23:44:38.845Z,99.90
2018-05-25T23:46:41.330Z,99.90
2018-05-25T23:48:43.821Z,99.90
2018-05-25T23:50:46.281Z,99.90
2018-05-25T23:52:48.844Z,99.90
2018-05-25T23:54:51.293Z,99.90
2018-05-25T23:56:53.751Z,99.90
2018-05-25T23:58:56.980Z,99.90
